West Haverstraw, New York
Current Conditions -  °F | °C
As of 1:56 PM on Monday 20 Oct 2014 (Local Time) from KHPN Reporting Station
Clear Clear  
Wind Chill: 56°   Ceiling: Unl
Heat Index: 56°   Visibility: 10mi
Dew Point: 33°   Wind: 9mph
Humidity: 42%   Direction: 260°W
Pressure: 30.02"   Gusts: NA
Location:  41.2°N, 73.97°W
Report Text: KHPN 201756Z 26008KT 10SM CLR 13/01 A3002 RMK AO2 SLP169 T01330006 10133 20028 56027
Loading
Personal Weather Stations






























Interactive Weather Map
Tropical Storm Tracking
New forecast layout! Learn more

10-Day Weather Forecast

Advertisements
Track Severe Weather on mobile